createdAt,value
2022-09-12T00:01:37.537Z,82.32
2022-09-12T00:04:07.391Z,82.37
2022-09-12T00:06:38.225Z,82.53
2022-09-12T00:09:10.503Z,82.23
2022-09-12T00:11:43.628Z,82.76
2022-09-12T00:14:16.881Z,81.97
2022-09-12T00:16:46.805Z,82.79
2022-09-12T00:19:17.009Z,82.35
2022-09-12T00:21:47.355Z,82.52
2022-09-12T00:24:17.159Z,82.08
2022-09-12T00:26:48.838Z,82.39
2022-09-12T00:29:20.917Z,82.06
2022-09-12T00:31:50.850Z,82.06
2022-09-12T00:34:20.825Z,82.78
2022-09-12T00:36:50.585Z,82.31
2022-09-12T00:39:20.333Z,82.54
2022-09-12T00:41:51.652Z,83.04
2022-09-12T00:44:45.079Z,82.98
2022-09-12T00:47:20.589Z,83.45
2022-09-12T00:49:56.518Z,82.98
2022-09-12T00:52:32.007Z,82.93
2022-09-12T00:55:06.781Z,82.96
2022-09-12T00:57:44.603Z,82.90
2022-09-12T01:00:16.737Z,83.16
2022-09-12T01:02:50.024Z,83.55
2022-09-12T01:05:20.963Z,83.01
2022-09-12T01:07:52.806Z,83.31
2022-09-12T01:10:23.348Z,83.12
2022-09-12T01:12:55.259Z,82.82
2022-09-12T01:15:25.645Z,82.89
2022-09-12T01:18:08.845Z,82.61
2022-09-12T01:21:07.790Z,83.07
2022-09-12T01:24:19.255Z,83.10
2022-09-12T01:27:29.406Z,82.99
2022-09-12T01:30:33.851Z,83.06
2022-09-12T01:33:23.911Z,82.61
2022-09-12T01:36:07.357Z,82.15
2022-09-12T01:38:40.682Z,82.11
2022-09-12T01:41:18.617Z,81.48
2022-09-12T01:43:52.407Z,81.36
2022-09-12T01:46:27.050Z,80.44
2022-09-12T01:49:02.464Z,79.90
2022-09-12T01:51:37.443Z,80.18
2022-09-12T01:54:11.744Z,80.34
2022-09-12T01:56:45.110Z,80.35
2022-09-12T01:59:20.035Z,80.27
2022-09-12T02:01:56.791Z,80.10
2022-09-12T02:04:34.253Z,79.71
2022-09-12T02:07:12.418Z,79.25
2022-09-12T02:09:47.333Z,79.16
2022-09-12T02:12:21.968Z,78.69
2022-09-12T02:14:56.922Z,78.85
2022-09-12T02:17:28.267Z,78.83
2022-09-12T02:20:03.560Z,78.56
2022-09-12T02:22:37.451Z,78.80
2022-09-12T02:25:10.450Z,78.38
2022-09-12T02:27:44.224Z,78.10
2022-09-12T02:30:16.615Z,78.41
2022-09-12T02:32:58.364Z,78.38
2022-09-12T02:35:37.780Z,78.78
2022-09-12T02:38:11.289Z,78.74
2022-09-12T02:40:41.820Z,78.58
2022-09-12T02:43:11.627Z,78.82
2022-09-12T02:45:42.165Z,79.19
2022-09-12T02:48:17.347Z,79.31
2022-09-12T02:50:49.159Z,79.23
2022-09-12T02:53:19.680Z,78.92
2022-09-12T02:55:49.836Z,79.31
2022-09-12T02:58:24.574Z,79.73
2022-09-12T03:01:08.971Z,79.33
2022-09-12T03:04:00.434Z,79.15
2022-09-12T03:06:38.739Z,78.78
2022-09-12T03:09:16.926Z,78.47
2022-09-12T03:12:11.803Z,78.38
2022-09-12T03:15:02.143Z,78.56
2022-09-12T03:17:45.300Z,78.22
2022-09-12T03:20:23.468Z,78.33
2022-09-12T03:22:57.345Z,78.00
2022-09-12T03:25:32.111Z,77.56
2022-09-12T03:28:08.152Z,78.28
2022-09-12T03:30:42.287Z,77.94
2022-09-12T03:33:13.104Z,78.26
2022-09-12T03:35:44.793Z,78.40
2022-09-12T03:38:14.928Z,78.47
2022-09-12T03:40:44.857Z,78.53
2022-09-12T03:43:14.960Z,78.61
2022-09-12T03:45:44.727Z,78.17
2022-09-12T03:48:14.530Z,77.92
2022-09-12T03:50:45.726Z,77.58
2022-09-12T03:53:17.400Z,77.80
2022-09-12T03:55:48.767Z,78.11
2022-09-12T03:58:18.627Z,77.71
2022-09-12T04:00:48.505Z,77.72
2022-09-12T04:03:19.364Z,77.50
2022-09-12T04:05:50.606Z,77.27
2022-09-12T04:08:20.323Z,77.04
2022-09-12T04:10:50.753Z,76.79
2022-09-12T04:13:20.556Z,77.09
2022-09-12T04:15:57.792Z,76.81
2022-09-12T04:18:27.891Z,76.07
2022-09-12T04:20:59.416Z,76.12
2022-09-12T04:23:29.135Z,76.18
2022-09-12T04:26:00.833Z,75.98
2022-09-12T04:28:30.970Z,75.95
2022-09-12T04:31:03.219Z,76.21
2022-09-12T04:33:33.105Z,76.36
2022-09-12T04:36:10.722Z,75.80
2022-09-12T04:38:40.493Z,75.81
2022-09-12T04:41:14.000Z,75.33
2022-09-12T04:43:46.339Z,75.42
2022-09-12T04:46:19.847Z,74.69
2022-09-12T04:48:54.515Z,73.91
2022-09-12T04:51:29.816Z,73.84
2022-09-12T04:54:01.557Z,73.32
2022-09-12T04:56:31.947Z,72.18
2022-09-12T04:59:02.668Z,71.61
2022-09-12T05:01:32.636Z,70.46
2022-09-12T05:04:03.787Z,70.70
2022-09-12T05:06:37.211Z,70.89
2022-09-12T05:09:08.812Z,70.15
2022-09-12T05:12:03.081Z,69.91
2022-09-12T05:14:32.511Z,69.34
2022-09-12T05:17:02.993Z,69.60
2022-09-12T05:19:33.562Z,69.55
2022-09-12T05:22:06.742Z,68.34
2022-09-12T05:24:37.928Z,68.39
2022-09-12T05:27:07.816Z,68.67
2022-09-12T05:29:37.626Z,68.26
2022-09-12T05:32:07.404Z,67.78
2022-09-12T05:34:37.998Z,67.46
2022-09-12T05:37:09.237Z,67.09
2022-09-12T05:39:38.971Z,67.21
2022-09-12T05:42:09.091Z,67.03
2022-09-12T05:44:38.862Z,66.49
2022-09-12T05:47:08.797Z,66.45
2022-09-12T05:49:38.572Z,66.55
2022-09-12T05:52:10.146Z,66.59
2022-09-12T05:54:41.270Z,66.00
2022-09-12T05:57:11.096Z,66.20
2022-09-12T05:59:40.819Z,66.34
2022-09-12T06:02:12.979Z,65.65
2022-09-12T06:04:43.839Z,64.70
2022-09-12T06:07:15.592Z,65.54
2022-09-12T06:09:45.340Z,65.42
2022-09-12T06:12:15.118Z,65.12
2022-09-12T06:14:44.908Z,64.95
2022-09-12T06:17:14.607Z,64.41
2022-09-12T06:19:44.481Z,64.05
2022-09-12T06:22:15.659Z,63.74
2022-09-12T06:24:45.821Z,62.65
2022-09-12T06:27:16.198Z,62.39
2022-09-12T06:29:46.004Z,62.36
2022-09-12T06:32:16.608Z,61.58
2022-09-12T06:34:48.495Z,61.36
2022-09-12T06:37:20.077Z,61.67
2022-09-12T06:39:49.975Z,61.00
2022-09-12T06:42:20.089Z,60.37
2022-09-12T06:44:50.539Z,60.60
2022-09-12T06:47:21.189Z,61.03
2022-09-12T06:49:51.229Z,59.88
2022-09-12T06:52:22.356Z,59.19
2022-09-12T06:54:52.147Z,59.18
2022-09-12T06:57:22.027Z,59.18
2022-09-12T06:59:52.356Z,58.71
2022-09-12T07:02:22.223Z,58.15
2022-09-12T07:04:52.349Z,58.50
2022-09-12T07:07:24.204Z,57.77
2022-09-12T07:09:54.112Z,57.50
2022-09-12T07:12:24.071Z,56.86
2022-09-12T07:14:54.164Z,57.01
2022-09-12T07:17:24.315Z,56.75
2022-09-12T07:19:54.044Z,56.98
2022-09-12T07:22:25.311Z,56.70
2022-09-12T07:24:55.841Z,56.74
2022-09-12T07:27:25.682Z,56.13
2022-09-12T07:29:55.998Z,55.96
2022-09-12T07:32:26.118Z,55.83
2022-09-12T07:34:56.011Z,55.79
2022-09-12T07:37:29.516Z,55.24
2022-09-12T07:39:59.746Z,55.73
2022-09-12T07:42:29.706Z,55.79
2022-09-12T07:45:00.537Z,55.20
2022-09-12T07:47:30.286Z,54.49
2022-09-12T07:50:00.266Z,54.23
2022-09-12T07:52:31.695Z,54.88
2022-09-12T07:55:01.587Z,54.09
2022-09-12T07:57:31.615Z,54.07
2022-09-12T08:00:01.610Z,53.66
2022-09-12T08:02:31.664Z,53.10
2022-09-12T08:05:02.558Z,51.35
2022-09-12T08:07:34.229Z,50.70
2022-09-12T08:10:04.282Z,49.55
2022-09-12T08:12:34.664Z,49.64
2022-09-12T08:15:06.520Z,49.86
2022-09-12T08:17:36.518Z,49.81
2022-09-12T08:20:07.332Z,49.81
2022-09-12T08:22:39.934Z,48.48
2022-09-12T08:25:10.522Z,48.41
2022-09-12T08:27:40.830Z,47.87
2022-09-12T08:30:11.986Z,48.08
2022-09-12T08:32:41.750Z,47.73
2022-09-12T08:35:11.979Z,47.35
2022-09-12T08:38:01.275Z,47.22
2022-09-12T08:40:31.641Z,47.33
2022-09-12T08:43:09.436Z,46.95
2022-09-12T08:45:48.248Z,47.06
2022-09-12T08:48:18.131Z,46.33
2022-09-12T08:50:49.914Z,46.35
2022-09-12T08:53:24.889Z,46.52
2022-09-12T08:55:59.627Z,46.37
2022-09-12T08:58:30.769Z,46.62
2022-09-12T09:01:08.545Z,46.38
2022-09-12T09:04:08.167Z,46.34
2022-09-12T09:06:58.538Z,45.34
2022-09-12T09:09:41.426Z,44.88
2022-09-12T09:12:23.540Z,45.26
2022-09-12T09:15:22.153Z,45.34
2022-09-12T09:17:56.428Z,45.34
2022-09-12T09:20:31.760Z,45.68
2022-09-12T09:23:08.701Z,45.27
2022-09-12T09:25:50.732Z,44.99
2022-09-12T09:28:24.941Z,44.76
2022-09-12T09:30:54.885Z,44.19
2022-09-12T09:33:27.479Z,45.00
2022-09-12T09:36:04.406Z,44.91
2022-09-12T09:38:45.899Z,44.88
2022-09-12T09:41:35.543Z,44.94
2022-09-12T09:44:05.787Z,44.42
2022-09-12T09:46:35.771Z,44.39
2022-09-12T09:49:09.212Z,43.94
2022-09-12T09:51:41.830Z,43.31
2022-09-12T09:54:21.264Z,44.80
2022-09-12T09:56:52.572Z,44.03
2022-09-12T09:59:28.420Z,44.05
2022-09-12T10:02:03.652Z,43.54
2022-09-12T10:04:41.084Z,43.16
2022-09-12T10:07:21.170Z,42.73
2022-09-12T10:10:07.052Z,42.74
2022-09-12T10:12:38.488Z,42.87
2022-09-12T10:15:19.347Z,42.76
2022-09-12T10:17:51.050Z,42.53
2022-09-12T10:20:37.313Z,42.74
2022-09-12T10:23:28.489Z,41.97
2022-09-12T10:26:01.813Z,41.33
2022-09-12T10:28:37.426Z,40.89
2022-09-12T10:31:09.688Z,40.85
2022-09-12T10:33:45.277Z,40.83
2022-09-12T10:36:16.783Z,41.09
2022-09-12T10:38:52.300Z,41.04
2022-09-12T10:41:23.023Z,41.36
2022-09-12T10:43:54.199Z,41.22
2022-09-12T10:46:30.571Z,39.91
2022-09-12T10:49:21.177Z,39.63
2022-09-12T10:51:51.919Z,40.15
2022-09-12T10:54:24.796Z,39.26
2022-09-12T10:57:08.628Z,39.45
2022-09-12T10:59:52.815Z,39.09
2022-09-12T11:02:29.667Z,39.11
2022-09-12T11:05:08.027Z,39.16
2022-09-12T11:07:43.888Z,37.93
2022-09-12T11:10:38.786Z,38.05
2022-09-12T11:13:23.944Z,38.40
2022-09-12T11:16:08.136Z,38.29
2022-09-12T11:18:56.792Z,37.51
2022-09-12T11:21:45.808Z,38.08
2022-09-12T11:24:30.634Z,38.59
2022-09-12T11:27:15.950Z,38.74
2022-09-12T11:29:51.025Z,39.09
2022-09-12T11:32:47.606Z,38.88
2022-09-12T11:35:25.837Z,37.22
2022-09-12T11:38:25.087Z,37.51
2022-09-12T11:40:57.543Z,37.59
2022-09-12T11:43:37.994Z,37.40
2022-09-12T11:46:19.623Z,38.21
2022-09-12T11:48:59.050Z,39.21
2022-09-12T11:51:35.107Z,39.81
2022-09-12T11:54:15.046Z,40.06
2022-09-12T11:56:48.290Z,39.43
2022-09-12T11:59:38.155Z,39.39
2022-09-12T12:02:15.644Z,38.15
2022-09-12T12:05:02.992Z,37.91
2022-09-12T12:07:45.668Z,38.44
2022-09-12T12:10:28.566Z,39.12
2022-09-12T12:13:02.037Z,38.63
2022-09-12T12:15:32.595Z,38.66
2022-09-12T12:18:08.921Z,39.06
2022-09-12T12:20:40.269Z,38.77
2022-09-12T12:23:24.291Z,38.50
2022-09-12T12:25:56.585Z,38.75
2022-09-12T12:28:57.389Z,38.13
2022-09-12T12:31:27.828Z,38.15
2022-09-12T12:34:06.635Z,38.60
2022-09-12T12:36:40.435Z,39.19
2022-09-12T12:39:49.980Z,39.38
2022-09-12T12:42:58.757Z,39.42
2022-09-12T12:46:13.136Z,39.54
2022-09-12T12:48:56.789Z,39.01
2022-09-12T12:51:36.295Z,38.10
2022-09-12T12:54:30.808Z,37.75
2022-09-12T12:57:18.746Z,36.23
2022-09-12T12:59:54.235Z,36.24
2022-09-12T13:02:30.274Z,36.35
2022-09-12T13:05:02.452Z,36.89
2022-09-12T13:07:36.307Z,36.91
2022-09-12T13:10:09.483Z,37.16
2022-09-12T13:12:47.082Z,37.29
2022-09-12T13:15:49.849Z,37.47
2022-09-12T13:18:26.171Z,37.66
2022-09-12T13:21:04.999Z,36.80
2022-09-12T13:23:35.443Z,36.50
2022-09-12T13:26:12.900Z,35.61
2022-09-12T13:28:42.934Z,35.70
2022-09-12T13:31:24.865Z,35.72
2022-09-12T13:33:57.917Z,35.26
2022-09-12T13:37:27.691Z,35.26
2022-09-12T13:40:07.505Z,35.17
2022-09-12T13:42:43.509Z,35.86
2022-09-12T13:45:18.456Z,36.28
2022-09-12T13:47:55.316Z,36.46
2022-09-12T13:50:32.226Z,37.02
2022-09-12T13:53:06.933Z,36.72
2022-09-12T13:55:41.639Z,37.11
2022-09-12T13:58:21.620Z,36.92
2022-09-12T14:01:14.390Z,37.52
2022-09-12T14:04:08.726Z,37.92
2022-09-12T14:06:49.681Z,37.88
2022-09-12T14:09:25.475Z,37.19
2022-09-12T14:11:55.874Z,36.98
2022-09-12T14:14:32.947Z,37.82
2022-09-12T14:17:03.245Z,37.81
2022-09-12T14:19:34.564Z,37.68
2022-09-12T14:22:04.988Z,37.30
2022-09-12T14:24:34.945Z,37.64
2022-09-12T14:27:06.403Z,37.77
2022-09-12T14:29:37.965Z,38.12
2022-09-12T14:32:22.680Z,37.92
2022-09-12T14:35:06.482Z,38.30
2022-09-12T14:37:36.679Z,37.44
2022-09-12T14:40:19.373Z,38.17
2022-09-12T14:42:51.463Z,38.10
2022-09-12T14:45:32.031Z,38.13
2022-09-12T14:48:02.154Z,37.90
2022-09-12T14:50:37.240Z,38.50
2022-09-12T14:53:08.797Z,38.82
2022-09-12T14:55:45.399Z,38.67
2022-09-12T14:58:23.572Z,39.06
2022-09-12T15:01:00.319Z,39.02
2022-09-12T15:03:33.225Z,39.22
2022-09-12T15:06:04.926Z,39.15
2022-09-12T15:08:34.823Z,39.29
2022-09-12T15:11:07.804Z,39.65
2022-09-12T15:13:41.821Z,39.63
2022-09-12T15:16:13.964Z,39.57
2022-09-12T15:18:44.186Z,39.77
2022-09-12T15:21:17.686Z,39.86
2022-09-12T15:23:49.483Z,39.80
2022-09-12T15:26:21.829Z,40.22
2022-09-12T15:28:52.262Z,40.09
2022-09-12T15:31:27.217Z,39.92
2022-09-12T15:33:59.172Z,39.80
2022-09-12T15:36:30.073Z,39.81
2022-09-12T15:39:00.031Z,40.10
2022-09-12T15:41:34.143Z,40.16
2022-09-12T15:44:05.211Z,39.98
2022-09-12T15:46:36.501Z,39.60
2022-09-12T15:49:07.064Z,39.98
2022-09-12T15:51:37.163Z,40.11
2022-09-12T15:54:06.997Z,39.64
2022-09-12T15:56:37.032Z,39.32
2022-09-12T15:59:07.119Z,39.60
2022-09-12T16:01:38.540Z,39.20
2022-09-12T16:04:21.867Z,40.04
2022-09-12T16:06:52.051Z,39.78
2022-09-12T16:09:22.849Z,40.17
2022-09-12T16:11:52.839Z,40.34
2022-09-12T16:14:22.844Z,40.85
2022-09-12T16:16:57.482Z,40.48
2022-09-12T16:19:27.369Z,41.10
2022-09-12T16:21:57.357Z,41.09
2022-09-12T16:24:27.367Z,41.26
2022-09-12T16:27:00.981Z,41.57
2022-09-12T16:29:31.391Z,42.00
2022-09-12T16:32:03.354Z,42.13
2022-09-12T16:34:33.236Z,42.67
2022-09-12T16:37:03.242Z,42.76
2022-09-12T16:39:34.481Z,43.19
2022-09-12T16:42:05.031Z,43.31
2022-09-12T16:44:34.980Z,43.49
2022-09-12T16:47:06.676Z,43.58
2022-09-12T16:49:36.455Z,43.86
2022-09-12T16:52:06.894Z,44.19
2022-09-12T16:54:37.090Z,44.23
2022-09-12T16:57:07.322Z,44.16
2022-09-12T16:59:37.547Z,44.51
2022-09-12T17:02:09.250Z,44.59
2022-09-12T17:04:39.315Z,44.78
2022-09-12T17:07:10.176Z,44.92
2022-09-12T17:09:40.332Z,45.06
2022-09-12T17:12:10.484Z,45.26
2022-09-12T17:14:40.350Z,45.37
2022-09-12T17:17:11.882Z,45.19
2022-09-12T17:19:43.416Z,45.21
2022-09-12T17:22:13.421Z,45.39
2022-09-12T17:24:43.433Z,45.34
2022-09-12T17:27:13.571Z,45.59
2022-09-12T17:29:43.569Z,45.77
2022-09-12T17:32:17.555Z,45.46
2022-09-12T17:34:47.559Z,45.33
2022-09-12T17:37:17.776Z,45.36
2022-09-12T17:39:47.764Z,45.26
2022-09-12T17:42:17.964Z,45.18
2022-09-12T17:44:48.179Z,45.19
2022-09-12T17:47:19.633Z,45.38
2022-09-12T17:49:50.703Z,45.48
2022-09-12T17:52:21.463Z,45.39
2022-09-12T17:54:51.651Z,45.45
2022-09-12T17:57:21.497Z,45.45
2022-09-12T17:59:51.622Z,45.77
2022-09-12T18:02:21.941Z,45.68
2022-09-12T18:04:51.891Z,45.63
2022-09-12T18:07:22.229Z,45.83
2022-09-12T18:09:52.666Z,45.78
2022-09-12T18:12:22.554Z,46.25
2022-09-12T18:14:52.533Z,45.81
2022-09-12T18:17:23.707Z,46.11
2022-09-12T18:19:54.876Z,45.85
2022-09-12T18:22:24.942Z,46.12
2022-09-12T18:24:54.822Z,46.13
2022-09-12T18:27:24.897Z,46.35
2022-09-12T18:30:17.125Z,46.19
2022-09-12T18:32:46.757Z,46.31
2022-09-12T18:35:18.048Z,46.59
2022-09-12T18:37:47.978Z,46.63
2022-09-12T18:40:18.530Z,46.92
2022-09-12T18:42:48.409Z,46.95
2022-09-12T18:45:18.476Z,47.14
2022-09-12T18:47:49.934Z,47.23
2022-09-12T18:50:19.732Z,47.40
2022-09-12T18:52:49.518Z,47.23
2022-09-12T18:55:20.109Z,47.48
2022-09-12T18:57:50.562Z,47.69
2022-09-12T19:00:21.455Z,47.59
2022-09-12T19:02:52.671Z,48.06
2022-09-12T19:05:22.471Z,47.89
2022-09-12T19:07:52.663Z,47.96
2022-09-12T19:10:22.731Z,47.93
2022-09-12T19:12:52.877Z,48.12
2022-09-12T19:15:23.125Z,47.91
2022-09-12T19:17:54.540Z,47.91
2022-09-12T19:20:24.418Z,47.94
2022-09-12T19:22:54.198Z,47.92
2022-09-12T19:25:24.597Z,47.61
2022-09-12T19:27:54.435Z,47.54
2022-09-12T19:30:24.356Z,47.46
2022-09-12T19:32:55.568Z,47.26
2022-09-12T19:35:25.481Z,47.35
2022-09-12T19:37:55.736Z,47.40
2022-09-12T19:40:25.779Z,47.24
2022-09-12T19:42:55.568Z,47.31
2022-09-12T19:45:25.737Z,47.42
2022-09-12T19:47:56.921Z,47.77
2022-09-12T19:50:27.309Z,47.30
2022-09-12T19:52:57.070Z,47.54
2022-09-12T19:55:27.261Z,47.61
2022-09-12T19:57:57.079Z,47.44
2022-09-12T20:00:27.037Z,47.57
2022-09-12T20:02:58.228Z,47.82
2022-09-12T20:05:28.224Z,47.58
2022-09-12T20:07:58.866Z,47.49
2022-09-12T20:10:29.128Z,47.62
2022-09-12T20:12:58.961Z,47.59
2022-09-12T20:15:29.125Z,47.52
2022-09-12T20:18:00.358Z,47.79
2022-09-12T20:20:30.341Z,47.76
2022-09-12T20:23:01.069Z,48.12
2022-09-12T20:25:30.981Z,47.92
2022-09-12T20:28:00.934Z,48.18
2022-09-12T20:30:31.020Z,48.13
2022-09-12T20:33:02.478Z,48.29
2022-09-12T20:35:32.470Z,48.45
2022-09-12T20:38:02.459Z,48.34
2022-09-12T20:40:32.318Z,48.27
2022-09-12T20:43:02.085Z,48.51
2022-09-12T20:45:31.846Z,48.43
2022-09-12T20:48:03.330Z,48.74
2022-09-12T20:50:33.264Z,48.68
2022-09-12T20:53:03.072Z,48.94
2022-09-12T20:55:32.965Z,49.15
2022-09-12T20:58:03.359Z,49.20
2022-09-12T21:00:33.281Z,49.06
2022-09-12T21:03:05.228Z,49.17
2022-09-12T21:05:35.164Z,49.53
2022-09-12T21:08:05.046Z,49.56
2022-09-12T21:10:35.987Z,49.77
2022-09-12T21:13:05.742Z,49.69
2022-09-12T21:15:35.502Z,49.84
2022-09-12T21:18:06.831Z,50.36
2022-09-12T21:20:36.711Z,50.25
2022-09-12T21:23:06.476Z,50.12
2022-09-12T21:25:36.274Z,50.29
2022-09-12T21:28:06.232Z,50.45
2022-09-12T21:30:36.037Z,50.45
2022-09-12T21:33:08.665Z,50.80
2022-09-12T21:35:39.048Z,50.77
2022-09-12T21:38:09.404Z,50.62
2022-09-12T21:40:39.658Z,50.56
2022-09-12T21:43:12.765Z,50.72
2022-09-12T21:45:42.868Z,50.76
2022-09-12T21:48:13.975Z,50.88
2022-09-12T21:50:44.364Z,50.63
2022-09-12T21:53:14.136Z,50.50
2022-09-12T21:55:44.059Z,50.88
2022-09-12T21:58:13.803Z,51.07
2022-09-12T22:00:44.393Z,51.08
2022-09-12T22:03:15.941Z,50.95
2022-09-12T22:05:45.832Z,51.00
2022-09-12T22:08:15.483Z,51.21
2022-09-12T22:10:45.237Z,51.19
2022-09-12T22:13:15.004Z,51.52
2022-09-12T22:15:45.686Z,51.34
2022-09-12T22:18:16.810Z,51.21
2022-09-12T22:20:47.310Z,51.50
2022-09-12T22:23:34.775Z,51.52
2022-09-12T22:26:04.812Z,52.04
2022-09-12T22:28:35.859Z,51.90
2022-09-12T22:31:06.681Z,51.64
2022-09-12T22:33:38.184Z,52.00
2022-09-12T22:36:09.779Z,52.08
2022-09-12T22:38:40.536Z,52.06
2022-09-12T22:41:13.187Z,51.98
2022-09-12T22:43:43.183Z,52.29
2022-09-12T22:46:13.409Z,52.02
2022-09-12T22:48:44.701Z,52.29
2022-09-12T22:51:14.776Z,52.43
2022-09-12T22:53:44.960Z,52.35
2022-09-12T22:56:14.859Z,52.40
2022-09-12T22:58:44.580Z,52.25
2022-09-12T23:01:14.513Z,51.97
2022-09-12T23:03:46.090Z,52.48
2022-09-12T23:06:16.033Z,52.40
2022-09-12T23:08:46.229Z,52.48
2022-09-12T23:11:17.768Z,52.71
2022-09-12T23:13:49.432Z,52.68
2022-09-12T23:16:21.496Z,52.60
2022-09-12T23:18:53.633Z,52.46
2022-09-12T23:21:23.561Z,52.76
2022-09-12T23:23:53.741Z,52.80
2022-09-12T23:26:25.655Z,52.58
2022-09-12T23:28:57.498Z,52.95
2022-09-12T23:31:30.041Z,52.85
2022-09-12T23:34:05.942Z,52.52
2022-09-12T23:36:35.865Z,52.73
2022-09-12T23:39:06.218Z,52.88
2022-09-12T23:41:36.143Z,53.09
2022-09-12T23:44:06.044Z,52.91
2022-09-12T23:46:35.820Z,52.98
2022-09-12T23:49:07.413Z,53.13
2022-09-12T23:51:37.344Z,52.89
2022-09-12T23:54:08.705Z,52.91
2022-09-12T23:56:38.554Z,53.00
2022-09-12T23:59:09.302Z,52.61
